createdAt,value
2022-08-12T00:00:43.789Z,18.30
2022-08-12T00:03:04.583Z,18.20
2022-08-12T00:05:28.335Z,18.20
2022-08-12T00:07:51.652Z,18.20
2022-08-12T00:10:13.175Z,18.20
2022-08-12T00:12:34.290Z,18.10
2022-08-12T00:14:58.186Z,18.20
2022-08-12T00:17:20.608Z,18.10
2022-08-12T00:19:43.915Z,18.10
2022-08-12T00:22:05.176Z,18.00
2022-08-12T00:24:29.600Z,18.00
2022-08-12T00:26:50.810Z,18.00
2022-08-12T00:29:13.119Z,18.00
2022-08-12T00:31:34.159Z,17.90
2022-08-12T00:33:58.811Z,17.90
2022-08-12T00:36:34.762Z,17.90
2022-08-12T00:38:59.950Z,17.80
2022-08-12T00:41:22.709Z,17.80
2022-08-12T00:43:29.421Z,17.70
2022-08-12T00:45:53.374Z,17.70
2022-08-12T00:47:59.691Z,17.70
2022-08-12T00:50:04.831Z,17.70
2022-08-12T00:52:10.590Z,17.70
2022-08-12T00:54:14.522Z,17.70
2022-08-12T00:56:24.003Z,17.70
2022-08-12T00:58:30.190Z,17.70
2022-08-12T01:00:35.658Z,17.70
2022-08-12T01:02:41.975Z,17.80
2022-08-12T01:05:07.201Z,17.80
2022-08-12T01:07:31.048Z,17.70
2022-08-12T01:09:54.914Z,17.70
2022-08-12T01:12:01.709Z,17.80
2022-08-12T01:14:05.427Z,17.70
2022-08-12T01:16:12.233Z,17.60
2022-08-12T01:18:17.696Z,17.60
2022-08-12T01:20:41.139Z,17.70
2022-08-12T01:22:57.401Z,17.70
2022-08-12T01:25:09.981Z,17.60
2022-08-12T01:29:32.541Z,17.70
2022-08-12T01:31:42.859Z,17.70
2022-08-12T01:34:00.080Z,17.60
2022-08-12T01:36:09.052Z,17.60
2022-08-12T01:38:15.145Z,17.60
2022-08-12T01:40:33.207Z,17.60
2022-08-12T01:42:48.399Z,17.50
2022-08-12T01:44:54.116Z,17.60
2022-08-12T01:47:19.390Z,17.50
2022-08-12T01:49:50.647Z,17.50
2022-08-12T01:52:21.692Z,17.50
2022-08-12T01:54:29.527Z,17.50
2022-08-12T01:56:44.181Z,17.50
2022-08-12T01:59:05.600Z,17.40
2022-08-12T02:01:16.987Z,17.40
2022-08-12T02:04:13.625Z,17.40
2022-08-12T02:06:45.118Z,17.40
2022-08-12T02:09:11.016Z,17.40
2022-08-12T02:11:23.704Z,17.40
2022-08-12T02:13:58.559Z,17.40
2022-08-12T02:16:11.964Z,17.50
2022-08-12T02:18:30.515Z,17.40
2022-08-12T02:20:51.724Z,17.40
2022-08-12T02:22:58.539Z,17.40
2022-08-12T02:25:15.726Z,17.30
2022-08-12T02:29:27.053Z,17.30
2022-08-12T02:31:31.675Z,17.30
2022-08-12T02:33:35.745Z,17.30
2022-08-12T02:35:40.678Z,17.30
2022-08-12T02:37:45.705Z,17.20
2022-08-12T02:39:51.092Z,17.20
2022-08-12T02:42:10.482Z,17.20
2022-08-12T02:44:20.557Z,17.10
2022-08-12T02:46:31.092Z,17.10
2022-08-12T02:48:42.217Z,17.00
2022-08-12T02:50:50.442Z,16.90
2022-08-12T02:52:55.749Z,16.80
2022-08-12T02:55:04.942Z,16.80
2022-08-12T02:57:10.130Z,16.80
2022-08-12T02:59:18.667Z,16.90
2022-08-12T03:01:28.752Z,16.80
2022-08-12T03:03:38.739Z,16.70
2022-08-12T03:07:56.217Z,16.60
2022-08-12T03:10:15.915Z,16.60
2022-08-12T03:12:22.941Z,16.50
2022-08-12T03:14:30.415Z,16.50
2022-08-12T03:16:36.856Z,16.50
2022-08-12T03:18:45.995Z,16.50
2022-08-12T03:20:55.569Z,16.60
2022-08-12T03:23:02.019Z,16.60
2022-08-12T03:25:08.723Z,16.60
2022-08-12T03:27:15.304Z,16.60
2022-08-12T03:29:21.097Z,16.60
2022-08-12T03:31:30.053Z,16.50
2022-08-12T03:36:09.624Z,16.60
2022-08-12T03:38:16.510Z,16.60
2022-08-12T03:40:40.713Z,16.60
2022-08-12T03:43:07.214Z,16.50
2022-08-12T03:45:51.762Z,16.50
2022-08-12T03:48:19.535Z,16.60
2022-08-12T03:50:40.987Z,16.50
2022-08-12T03:53:10.042Z,16.50
2022-08-12T03:55:30.744Z,16.40
2022-08-12T03:57:52.174Z,16.40
2022-08-12T04:00:24.146Z,16.40
2022-08-12T04:02:30.245Z,16.50
2022-08-12T04:04:42.214Z,16.50
2022-08-12T04:06:47.406Z,16.50
2022-08-12T04:08:53.215Z,16.40
2022-08-12T04:11:14.918Z,16.40
2022-08-12T04:13:25.722Z,16.40
2022-08-12T04:15:33.036Z,16.40
2022-08-12T04:18:06.716Z,16.40
2022-08-12T04:20:11.676Z,16.40
2022-08-12T04:22:15.190Z,16.50
2022-08-12T04:24:25.102Z,16.50
2022-08-12T04:26:29.148Z,16.50
2022-08-12T04:28:33.063Z,16.50
2022-08-12T04:30:40.324Z,16.60
2022-08-12T04:32:44.726Z,16.70
2022-08-12T04:34:48.935Z,16.70
2022-08-12T04:36:53.852Z,16.70
2022-08-12T04:38:59.871Z,16.70
2022-08-12T04:41:06.224Z,16.80
2022-08-12T04:44:01.293Z,16.90
2022-08-12T04:45:34.788Z,16.90
2022-08-12T04:47:39.354Z,16.90
2022-08-12T04:49:46.353Z,16.90
2022-08-12T04:51:54.577Z,17.10
2022-08-12T04:54:03.220Z,17.10
2022-08-12T04:56:11.221Z,17.20
2022-08-12T04:58:16.008Z,17.10
2022-08-12T05:00:35.010Z,17.10
2022-08-12T05:02:39.999Z,17.20
2022-08-12T05:04:44.973Z,17.10
2022-08-12T05:06:49.236Z,17.30
2022-08-12T05:08:54.892Z,17.30
2022-08-12T05:10:59.813Z,17.30
2022-08-12T05:13:11.332Z,17.20
2022-08-12T05:15:21.261Z,17.30
2022-08-12T05:17:33.528Z,17.30
2022-08-12T05:19:39.467Z,17.40
2022-08-12T05:21:48.160Z,17.70
2022-08-12T05:23:52.462Z,18.00
2022-08-12T05:25:59.281Z,18.10
2022-08-12T05:28:06.099Z,18.30
2022-08-12T05:30:11.311Z,18.60
2022-08-12T05:32:20.591Z,18.80
2022-08-12T05:34:26.815Z,19.10
2022-08-12T05:36:33.733Z,19.20
2022-08-12T05:38:55.215Z,19.40
2022-08-12T05:40:59.201Z,19.60
2022-08-12T05:45:10.711Z,19.70
2022-08-12T05:47:14.975Z,19.80
2022-08-12T05:49:18.972Z,19.90
2022-08-12T05:51:39.931Z,19.90
2022-08-12T05:53:45.267Z,20.10
2022-08-12T05:55:52.905Z,20.50
2022-08-12T05:57:57.560Z,20.50
2022-08-12T06:02:13.772Z,20.80
2022-08-12T06:04:18.969Z,21.20
2022-08-12T06:06:27.584Z,21.50
2022-08-12T06:08:31.746Z,21.60
2022-08-12T06:10:39.849Z,21.80
2022-08-12T06:12:43.503Z,22.00
2022-08-12T06:14:48.735Z,22.30
2022-08-12T06:16:53.362Z,22.50
2022-08-12T06:18:59.872Z,22.90
2022-08-12T06:21:04.205Z,22.80
2022-08-12T06:23:07.702Z,22.70
2022-08-12T06:25:18.372Z,22.60
2022-08-12T06:27:22.207Z,22.50
2022-08-12T06:30:07.421Z,22.70
2022-08-12T06:31:53.594Z,22.70
2022-08-12T06:35:23.756Z,23.00
2022-08-12T06:36:29.567Z,22.90
2022-08-12T06:38:33.279Z,23.30
2022-08-12T06:40:54.325Z,23.60
2022-08-12T06:42:58.503Z,23.80
2022-08-12T06:45:02.474Z,24.30
2022-08-12T06:47:07.565Z,24.40
2022-08-12T06:49:13.427Z,24.70
2022-08-12T06:51:19.998Z,25.10
2022-08-12T06:53:26.978Z,25.90
2022-08-12T06:58:07.276Z,26.80
2022-08-12T07:00:16.095Z,26.70
2022-08-12T07:02:22.870Z,26.50
2022-08-12T07:06:42.950Z,26.70
2022-08-12T07:08:46.654Z,26.70
2022-08-12T07:10:59.306Z,26.50
2022-08-12T07:13:03.697Z,26.50
2022-08-12T07:15:08.876Z,26.80
2022-08-12T07:21:22.696Z,26.70
2022-08-12T07:23:26.487Z,26.40
2022-08-12T07:25:38.521Z,25.70
2022-08-12T07:27:46.881Z,25.30
2022-08-12T07:29:57.791Z,24.80
2022-08-12T07:32:09.781Z,24.70
2022-08-12T07:34:15.018Z,24.20
2022-08-12T07:36:22.639Z,23.90
2022-08-12T07:38:33.896Z,25.00
2022-08-12T07:40:37.994Z,26.50
2022-08-12T07:42:43.803Z,26.70
2022-08-12T07:46:55.704Z,26.10
2022-08-12T07:49:02.180Z,25.80
2022-08-12T07:51:06.833Z,26.30
2022-08-12T07:53:13.632Z,26.50
2022-08-12T07:55:19.792Z,26.60
2022-08-12T07:57:23.514Z,26.30
2022-08-12T07:59:29.896Z,26.60
2022-08-12T08:01:34.675Z,26.40
2022-08-12T08:03:47.628Z,26.00
2022-08-12T08:05:53.192Z,26.20
2022-08-12T08:10:11.000Z,25.70
2022-08-12T08:12:33.702Z,25.50
2022-08-12T08:14:37.835Z,25.30
2022-08-12T08:16:46.514Z,25.10
2022-08-12T08:18:53.695Z,25.20
2022-08-12T08:21:00.854Z,25.10
2022-08-12T08:23:08.107Z,26.00
2022-08-12T08:25:34.663Z,27.00
2022-08-12T08:27:49.702Z,27.80
2022-08-12T08:29:53.768Z,28.40
2022-08-12T08:32:01.728Z,30.20
2022-08-12T08:34:47.153Z,30.60
2022-08-12T08:36:31.234Z,31.60
2022-08-12T08:38:35.524Z,33.00
2022-08-12T08:40:59.004Z,34.10
2022-08-12T08:43:05.015Z,34.00
2022-08-12T08:45:13.138Z,34.30
2022-08-12T08:47:16.791Z,34.30
2022-08-12T08:49:23.075Z,34.40
2022-08-12T08:51:26.993Z,34.60
2022-08-12T08:53:31.633Z,35.00
2022-08-12T08:56:03.165Z,35.50
2022-08-12T08:58:01.062Z,35.30
2022-08-12T09:00:09.851Z,34.60
2022-08-12T09:02:19.305Z,35.00
2022-08-12T09:05:12.289Z,35.30
2022-08-12T09:09:14.597Z,35.60
2022-08-12T09:16:29.115Z,34.90
2022-08-12T09:18:35.265Z,34.90
2022-08-12T09:20:42.367Z,34.70
2022-08-12T09:22:49.411Z,34.80
2022-08-12T09:24:53.390Z,36.00
2022-08-12T09:29:12.127Z,36.60
2022-08-12T09:32:07.563Z,37.10
2022-08-12T09:45:24.638Z,37.60
2022-08-12T09:52:24.947Z,37.50
2022-08-12T10:20:03.734Z,39.90
2022-08-12T10:27:05.663Z,36.40
2022-08-12T10:32:19.943Z,36.50
2022-08-12T10:34:23.836Z,36.70
2022-08-12T10:41:21.148Z,37.60
2022-08-12T10:46:02.463Z,37.70
2022-08-12T10:51:02.097Z,37.10
2022-08-12T11:00:31.147Z,35.60
2022-08-12T11:04:18.504Z,35.40
2022-08-12T11:28:04.279Z,35.10
2022-08-12T11:30:31.667Z,32.00
2022-08-12T11:34:53.024Z,31.90
2022-08-12T11:37:01.205Z,32.70
2022-08-12T11:41:16.163Z,33.60
2022-08-12T11:45:57.790Z,33.80
2022-08-12T11:48:03.927Z,33.30
2022-08-12T11:50:11.797Z,33.40
2022-08-12T11:52:56.047Z,32.10
2022-08-12T11:54:51.065Z,31.00
2022-08-12T11:57:00.278Z,29.80
2022-08-12T12:03:55.296Z,32.30
2022-08-12T12:08:37.669Z,32.50
2022-08-12T12:23:05.010Z,33.80
2022-08-12T12:25:13.350Z,32.40
2022-08-12T12:27:20.634Z,31.80
2022-08-12T12:30:14.084Z,31.30
2022-08-12T12:32:14.400Z,32.00
2022-08-12T12:34:30.410Z,32.70
2022-08-12T12:36:34.373Z,32.50
2022-08-12T12:38:40.418Z,31.00
2022-08-12T12:40:50.581Z,30.00
2022-08-12T12:43:00.550Z,29.10
2022-08-12T12:45:19.704Z,28.80
2022-08-12T12:47:29.057Z,28.00
2022-08-12T12:49:34.482Z,28.00
2022-08-12T12:51:48.629Z,28.00
2022-08-12T12:54:09.920Z,28.10
2022-08-12T12:56:20.002Z,28.60
2022-08-12T12:58:40.086Z,29.50
2022-08-12T13:00:50.971Z,29.60
2022-08-12T13:02:57.177Z,29.50
2022-08-12T13:05:03.341Z,29.80
2022-08-12T13:07:15.503Z,29.90
2022-08-12T13:09:22.912Z,30.00
2022-08-12T13:11:41.273Z,29.50
2022-08-12T13:14:10.406Z,29.50
2022-08-12T13:16:21.716Z,29.70
2022-08-12T13:18:28.454Z,30.30
2022-08-12T13:20:38.058Z,30.60
2022-08-12T13:22:46.978Z,30.40
2022-08-12T13:24:56.519Z,29.90
2022-08-12T13:27:05.121Z,29.80
2022-08-12T13:29:11.649Z,29.90
2022-08-12T13:31:17.484Z,29.60
2022-08-12T13:33:25.124Z,29.40
2022-08-12T13:36:06.295Z,28.80
2022-08-12T13:38:04.650Z,28.10
2022-08-12T13:40:10.773Z,27.00
2022-08-12T13:42:17.015Z,26.00
2022-08-12T13:48:33.663Z,23.70
2022-08-12T13:50:42.174Z,23.30
2022-08-12T13:52:45.929Z,22.90
2022-08-12T14:24:05.335Z,20.90
2022-08-12T14:26:19.986Z,20.90
2022-08-12T14:28:25.133Z,21.00
2022-08-12T14:30:30.580Z,21.10
2022-08-12T14:32:36.258Z,21.10
2022-08-12T14:34:40.267Z,21.10
2022-08-12T14:38:57.151Z,21.20
2022-08-12T14:43:22.006Z,21.30
2022-08-12T14:45:45.150Z,21.50
2022-08-12T14:50:58.761Z,22.10
2022-08-12T14:57:20.234Z,22.00
2022-08-12T14:59:58.267Z,21.70
2022-08-12T15:04:11.280Z,21.70
2022-08-12T15:06:39.294Z,21.10
2022-08-12T15:08:43.123Z,20.80
2022-08-12T15:10:49.937Z,20.70
2022-08-12T15:13:00.252Z,20.50
2022-08-12T15:15:06.620Z,20.20
2022-08-12T15:17:37.977Z,19.80
2022-08-12T15:22:35.557Z,18.10
2022-08-12T15:24:27.226Z,16.30
2022-08-12T15:33:18.683Z,15.20
2022-08-12T15:35:24.413Z,15.20
2022-08-12T15:38:08.933Z,15.20
2022-08-12T15:40:01.178Z,15.20
2022-08-12T15:42:05.839Z,15.50
2022-08-12T15:44:38.232Z,15.40
2022-08-12T15:46:36.969Z,15.30
2022-08-12T15:48:43.380Z,15.40
2022-08-12T15:50:55.807Z,15.50
2022-08-12T15:53:13.769Z,15.40
2022-08-12T15:55:21.604Z,15.30
2022-08-12T15:57:25.218Z,15.40
2022-08-12T15:59:51.618Z,15.40
2022-08-12T16:01:55.430Z,15.50
2022-08-12T16:06:36.236Z,15.50
2022-08-12T16:08:45.814Z,15.60
2022-08-12T16:10:53.267Z,15.50
2022-08-12T16:13:04.720Z,15.40
2022-08-12T16:15:11.246Z,15.60
2022-08-12T16:17:16.823Z,15.60
2022-08-12T16:20:03.566Z,15.60
2022-08-12T16:21:59.388Z,15.70
2022-08-12T16:24:04.841Z,15.80
2022-08-12T16:28:28.174Z,15.60
2022-08-12T16:30:34.789Z,15.90
2022-08-12T16:32:52.886Z,15.90
2022-08-12T16:35:01.036Z,16.00
2022-08-12T16:37:07.844Z,16.00
2022-08-12T16:39:13.609Z,16.20
2022-08-12T16:41:22.445Z,16.20
2022-08-12T16:43:31.203Z,16.10
2022-08-12T16:46:05.214Z,16.20
2022-08-12T16:48:08.222Z,16.30
2022-08-12T16:50:35.981Z,16.40
2022-08-12T16:54:48.098Z,16.50
2022-08-12T16:56:57.807Z,16.50
2022-08-12T16:59:02.809Z,16.50
2022-08-12T17:01:22.464Z,16.30
2022-08-12T17:03:35.297Z,16.40
2022-08-12T17:07:52.806Z,16.20
2022-08-12T17:10:01.562Z,16.20
2022-08-12T17:12:06.166Z,16.30
2022-08-12T17:14:10.913Z,16.30
2022-08-12T17:16:18.157Z,16.30
2022-08-12T17:18:43.291Z,16.30
2022-08-12T17:20:56.542Z,16.20
2022-08-12T17:23:03.863Z,16.00
2022-08-12T17:25:17.809Z,16.10
2022-08-12T17:30:01.151Z,16.00
2022-08-12T17:32:00.629Z,15.90
2022-08-12T17:34:17.420Z,15.90
2022-08-12T17:36:25.956Z,15.80
2022-08-12T17:38:35.056Z,15.80
2022-08-12T17:40:39.317Z,15.70
2022-08-12T17:42:47.589Z,15.50
2022-08-12T17:44:52.818Z,15.50
2022-08-12T17:46:57.957Z,15.60
2022-08-12T17:49:06.676Z,15.60
2022-08-12T17:51:24.634Z,15.60
2022-08-12T17:54:05.814Z,15.60
2022-08-12T17:56:01.237Z,15.70
2022-08-12T17:58:05.254Z,15.60
2022-08-12T18:02:30.089Z,15.60
2022-08-12T18:04:36.304Z,15.60
2022-08-12T18:08:58.631Z,15.60
2022-08-12T18:12:03.011Z,15.50
2022-08-12T18:13:44.266Z,15.40
2022-08-12T18:16:05.735Z,15.40
2022-08-12T18:18:17.400Z,15.40
2022-08-12T18:20:23.792Z,15.40
2022-08-12T18:22:39.520Z,15.20
2022-08-12T18:25:03.884Z,15.20
2022-08-12T18:27:29.920Z,15.20
2022-08-12T18:29:42.332Z,15.20
2022-08-12T18:31:59.842Z,15.10
2022-08-12T18:36:22.602Z,14.90
2022-08-12T18:40:54.462Z,14.90
2022-08-12T18:42:59.366Z,14.90
2022-08-12T18:45:04.422Z,14.90
2022-08-12T18:49:22.626Z,14.90
2022-08-12T18:51:48.977Z,14.90
2022-08-12T18:54:07.069Z,14.80
2022-08-12T18:56:19.615Z,14.80
2022-08-12T18:58:59.293Z,14.70
2022-08-12T19:01:03.948Z,14.70
2022-08-12T19:03:38.597Z,14.80
2022-08-12T19:08:01.986Z,14.90
2022-08-12T19:10:09.454Z,14.90
2022-08-12T19:12:33.599Z,14.80
2022-08-12T19:14:42.636Z,14.80
2022-08-12T19:16:50.993Z,14.70
2022-08-12T19:18:55.162Z,14.70
2022-08-12T19:21:06.458Z,14.70
2022-08-12T19:23:21.325Z,14.70
2022-08-12T19:25:59.304Z,14.60
2022-08-12T19:28:00.962Z,14.60
2022-08-12T19:30:09.292Z,14.70
2022-08-12T19:32:13.849Z,14.80
2022-08-12T19:34:56.007Z,15.10
2022-08-12T19:36:45.273Z,15.10
2022-08-12T19:38:56.745Z,15.10
2022-08-12T19:43:17.878Z,15.00
2022-08-12T19:45:41.813Z,14.90
2022-08-12T19:47:48.548Z,14.80
2022-08-12T19:49:55.663Z,14.70
2022-08-12T19:52:03.473Z,14.50
2022-08-12T19:54:08.334Z,14.50
2022-08-12T19:56:17.429Z,14.70
2022-08-12T19:58:26.793Z,14.70
2022-08-12T20:00:31.912Z,14.60
2022-08-12T20:02:37.913Z,14.80
2022-08-12T20:04:49.351Z,15.00
2022-08-12T20:07:23.746Z,15.00
2022-08-12T20:09:38.696Z,15.10
2022-08-12T20:12:11.275Z,15.20
2022-08-12T20:14:10.735Z,15.20
2022-08-12T20:16:47.063Z,15.10
2022-08-12T20:18:44.671Z,15.10
2022-08-12T20:20:57.115Z,15.10
2022-08-12T20:23:00.950Z,15.10
2022-08-12T20:25:16.064Z,15.20
2022-08-12T20:27:29.268Z,15.30
2022-08-12T20:29:46.299Z,15.20
2022-08-12T20:31:52.568Z,15.00
2022-08-12T20:33:57.062Z,14.90
2022-08-12T20:36:13.688Z,14.90
2022-08-12T20:38:26.836Z,14.90
2022-08-12T20:40:32.230Z,14.80
2022-08-12T20:44:43.358Z,14.70
2022-08-12T20:46:48.473Z,14.70
2022-08-12T20:48:54.913Z,14.70
2022-08-12T20:51:03.943Z,14.90
2022-08-12T20:53:14.026Z,15.10
2022-08-12T20:55:42.415Z,15.20
2022-08-12T20:58:02.199Z,15.10
2022-08-12T21:00:17.481Z,15.00
2022-08-12T21:02:30.330Z,15.10
2022-08-12T21:04:51.648Z,15.20
2022-08-12T21:07:04.430Z,15.20
2022-08-12T21:09:19.524Z,15.30
2022-08-12T21:13:38.848Z,15.00
2022-08-12T21:15:54.698Z,15.20
2022-08-12T21:18:10.976Z,15.30
2022-08-12T21:20:30.991Z,15.20
2022-08-12T21:22:40.195Z,15.20
2022-08-12T21:24:46.558Z,15.10
2022-08-12T21:26:53.539Z,15.10
2022-08-12T21:29:01.414Z,15.10
2022-08-12T21:32:34.976Z,15.00
2022-08-12T21:33:31.570Z,14.90
2022-08-12T21:35:35.910Z,14.70
2022-08-12T21:37:44.104Z,14.60
2022-08-12T21:39:57.349Z,14.50
2022-08-12T21:42:05.411Z,14.40
2022-08-12T21:44:24.655Z,14.50
2022-08-12T21:46:40.148Z,14.60
2022-08-12T21:48:45.283Z,14.60
2022-08-12T21:50:53.297Z,14.50
2022-08-12T21:53:10.040Z,14.50
2022-08-12T21:55:17.205Z,14.40
2022-08-12T21:57:23.817Z,14.40
2022-08-12T22:01:35.815Z,14.50
2022-08-12T22:04:24.374Z,14.50
2022-08-12T22:06:43.843Z,14.60
2022-08-12T22:10:56.617Z,14.70
2022-08-12T22:13:01.432Z,14.80
2022-08-12T22:15:06.179Z,14.70
2022-08-12T22:17:11.657Z,14.70
2022-08-12T22:19:27.066Z,14.80
2022-08-12T22:21:31.607Z,14.90
2022-08-12T22:24:04.425Z,15.00
2022-08-12T22:26:05.588Z,15.00
2022-08-12T22:28:38.969Z,14.90
2022-08-12T22:31:03.667Z,14.90
2022-08-12T22:33:15.646Z,14.90
2022-08-12T22:35:55.464Z,15.00
2022-08-12T22:38:11.338Z,15.00
2022-08-12T22:40:14.885Z,15.10
2022-08-12T22:42:36.268Z,15.10
2022-08-12T22:44:56.897Z,15.20
2022-08-12T22:47:40.173Z,15.20
2022-08-12T22:49:53.611Z,15.10
2022-08-12T22:52:12.326Z,15.20
2022-08-12T22:56:43.878Z,15.20
2022-08-12T22:58:50.769Z,15.10
2022-08-12T23:00:55.082Z,15.00
2022-08-12T23:03:02.721Z,14.90
2022-08-12T23:05:08.690Z,14.80
2022-08-12T23:07:15.780Z,14.90
2022-08-12T23:09:23.307Z,14.80
2022-08-12T23:11:33.649Z,14.90
2022-08-12T23:13:55.208Z,14.90
2022-08-12T23:16:04.227Z,14.90
2022-08-12T23:18:18.419Z,14.90
2022-08-12T23:23:08.877Z,15.00
2022-08-12T23:24:58.750Z,15.00
2022-08-12T23:27:21.342Z,15.10
2022-08-12T23:32:02.834Z,15.00
2022-08-12T23:34:07.634Z,15.10
2022-08-12T23:36:12.735Z,15.10
2022-08-12T23:38:31.531Z,15.10
2022-08-12T23:40:35.876Z,15.00
2022-08-12T23:42:44.092Z,15.00
2022-08-12T23:44:52.400Z,15.10
2022-08-12T23:46:59.280Z,15.10
2022-08-12T23:49:55.399Z,15.10
2022-08-12T23:53:43.523Z,15.10
2022-08-12T23:55:47.621Z,15.10
2022-08-12T23:58:21.590Z,15.10
